createdAt,value
2018-07-19T00:00:01.681Z,98206.97
2018-07-19T00:01:08.136Z,98210.58
2018-07-19T00:02:11.689Z,98205.93
2018-07-19T00:03:15.651Z,98204.33
2018-07-19T00:04:20.847Z,98206.23
2018-07-19T00:06:35.710Z,98207.55
2018-07-19T00:07:39.914Z,98200.98
2018-07-19T00:08:43.908Z,98209.87
2018-07-19T00:09:46.975Z,98203.73
2018-07-19T00:10:50.351Z,98199.38
2018-07-19T00:11:53.386Z,98202.70
2018-07-19T00:12:56.368Z,98200.30
2018-07-19T00:13:59.929Z,98203.74
2018-07-19T00:15:02.968Z,98200.39
2018-07-19T00:16:05.843Z,98198.48
2018-07-19T00:17:10.356Z,98198.33
2018-07-19T00:18:13.301Z,98203.78
2018-07-19T00:19:17.480Z,98198.80
2018-07-19T00:20:21.440Z,98199.39
2018-07-19T00:21:24.389Z,98196.05
2018-07-19T00:22:27.334Z,98194.16
2018-07-19T00:23:30.809Z,98197.42
2018-07-19T00:24:34.266Z,98193.70
2018-07-19T00:25:40.740Z,98197.88
2018-07-19T00:26:44.363Z,98195.28
2018-07-19T00:27:47.995Z,98196.50
2018-07-19T00:28:51.520Z,98195.15
2018-07-19T00:29:56.231Z,98192.20
2018-07-19T00:30:59.361Z,98192.20
2018-07-19T00:32:02.378Z,98193.68
2018-07-19T00:33:05.338Z,98199.25
2018-07-19T00:34:08.464Z,98198.88
2018-07-19T00:35:11.370Z,98198.47
2018-07-19T00:36:15.539Z,98206.35
2018-07-19T00:37:19.423Z,98201.70
2018-07-19T00:38:22.582Z,98198.36
2018-07-19T00:39:25.578Z,98200.33
2018-07-19T00:40:32.943Z,98201.63
2018-07-19T00:41:37.002Z,98208.09
2018-07-19T00:42:40.507Z,98203.83
2018-07-19T00:43:43.550Z,98208.03
2018-07-19T00:44:46.689Z,98210.77
2018-07-19T00:45:50.545Z,98204.85
2018-07-19T00:46:54.883Z,98204.77
2018-07-19T00:47:59.280Z,98206.80
2018-07-19T00:49:03.328Z,98207.14
2018-07-19T00:50:06.401Z,98204.45
2018-07-19T00:51:09.489Z,98205.22
2018-07-19T00:52:15.528Z,98208.97
2018-07-19T00:53:19.489Z,98210.33
2018-07-19T00:54:24.878Z,98213.45
2018-07-19T00:55:29.423Z,98209.09
2018-07-19T00:56:39.327Z,98209.55
2018-07-19T00:57:47.526Z,98211.08
2018-07-19T00:58:53.748Z,98211.49
2018-07-19T00:59:58.403Z,98205.42
2018-07-19T01:01:01.540Z,98204.79
2018-07-19T01:02:05.359Z,98206.66
2018-07-19T01:03:09.362Z,98202.63
2018-07-19T01:04:13.218Z,98200.46
2018-07-19T01:05:16.162Z,98203.83
2018-07-19T01:06:19.123Z,98207.60
2018-07-19T01:08:47.954Z,98205.91
2018-07-19T01:22:53.817Z,98208.29
2018-07-19T01:23:57.402Z,98208.34
2018-07-19T01:25:00.934Z,98214.11
2018-07-19T01:26:04.510Z,98207.42
2018-07-19T01:27:07.590Z,98199.59
2018-07-19T01:28:10.525Z,98205.90
2018-07-19T01:29:14.225Z,98206.12
2018-07-19T01:30:17.243Z,98204.64
2018-07-19T01:31:20.303Z,98205.72
2018-07-19T01:32:23.286Z,98204.98
2018-07-19T01:33:26.242Z,98203.76
2018-07-19T01:34:29.189Z,98201.44
2018-07-19T01:35:34.561Z,98207.95
2018-07-19T01:36:37.467Z,98200.22
2018-07-19T01:37:41.447Z,98202.19
2018-07-19T01:38:44.365Z,98202.22
2018-07-19T01:39:47.275Z,98206.73
2018-07-19T01:40:50.308Z,98206.10
2018-07-19T01:41:54.289Z,98199.88
2018-07-19T01:42:57.471Z,98205.31
2018-07-19T01:44:00.338Z,98206.66
2018-07-19T01:45:04.711Z,98198.49
2018-07-19T01:46:07.988Z,98212.16
2018-07-19T01:47:12.904Z,98213.55
2018-07-19T01:48:17.577Z,98208.76
2018-07-19T01:49:20.527Z,98213.78
2018-07-19T01:50:23.479Z,98218.02
2018-07-19T01:51:26.376Z,98211.28
2018-07-19T01:52:29.415Z,98212.14
2018-07-19T01:53:34.291Z,98210.64
2018-07-19T01:54:39.673Z,98212.11
2018-07-19T01:55:52.017Z,98208.19
2018-07-19T01:56:55.879Z,98208.42
2018-07-19T01:57:58.922Z,98209.95
2018-07-19T01:59:01.968Z,98207.80
2018-07-19T02:00:05.997Z,98213.59
2018-07-19T02:01:09.393Z,98211.02
2018-07-19T02:02:12.795Z,98214.44
2018-07-19T02:03:16.277Z,98214.52
2018-07-19T02:04:19.546Z,98211.80
2018-07-19T02:05:29.600Z,98214.83
2018-07-19T02:06:35.587Z,98204.73
2018-07-19T02:07:39.928Z,98210.13
2018-07-19T02:08:42.796Z,98203.95
2018-07-19T02:09:45.767Z,98213.57
2018-07-19T02:10:49.913Z,98210.85
2018-07-19T02:11:55.930Z,98214.80
2018-07-19T02:12:59.312Z,98210.63
2018-07-19T02:14:02.701Z,98204.04
2018-07-19T02:15:07.145Z,98205.61
2018-07-19T02:16:10.318Z,98208.32
2018-07-19T02:17:14.091Z,98208.73
2018-07-19T02:18:17.809Z,98211.06
2018-07-19T02:19:21.395Z,98212.63
2018-07-19T02:20:24.824Z,98215.23
2018-07-19T02:21:28.936Z,98215.05
2018-07-19T02:22:31.937Z,98217.34
2018-07-19T02:23:34.938Z,98220.08
2018-07-19T02:24:37.987Z,98220.45
2018-07-19T02:25:41.200Z,98216.00
2018-07-19T02:26:47.588Z,98217.74
2018-07-19T02:27:51.797Z,98213.95
2018-07-19T02:29:00.257Z,98214.59
2018-07-19T02:30:03.423Z,98219.80
2018-07-19T02:31:09.948Z,98221.67
2018-07-19T02:32:14.823Z,98221.25
2018-07-19T02:33:17.852Z,98222.73
2018-07-19T02:34:21.864Z,98221.09
2018-07-19T02:35:25.009Z,98222.55
2018-07-19T02:36:28.555Z,98222.60
2018-07-19T02:37:31.687Z,98217.42
2018-07-19T02:38:35.482Z,98219.08
2018-07-19T02:39:40.104Z,98216.64
2018-07-19T02:40:43.611Z,98223.20
2018-07-19T02:41:46.947Z,98221.08
2018-07-19T02:42:50.856Z,98215.22
2018-07-19T02:43:54.268Z,98215.64
2018-07-19T02:44:57.935Z,98214.21
2018-07-19T02:46:02.487Z,98218.56
2018-07-19T02:47:06.190Z,98218.00
2018-07-19T02:48:09.932Z,98212.02
2018-07-19T02:49:13.108Z,98214.62
2018-07-19T02:50:17.339Z,98216.01
2018-07-19T02:51:20.700Z,98214.26
2018-07-19T02:52:23.622Z,98218.09
2018-07-19T02:53:26.531Z,98219.42
2018-07-19T02:54:29.455Z,98218.45
2018-07-19T02:55:32.454Z,98220.05
2018-07-19T02:56:35.380Z,98221.91
2018-07-19T02:57:38.292Z,98223.73
2018-07-19T02:58:42.092Z,98219.21
2018-07-19T02:59:44.980Z,98218.02
2018-07-19T03:00:48.518Z,98221.69
2018-07-19T03:01:51.489Z,98223.31
2018-07-19T03:02:54.386Z,98218.09
2018-07-19T03:03:58.366Z,98217.78
2018-07-19T03:05:01.212Z,98225.05
2018-07-19T03:06:07.116Z,98222.08
2018-07-19T03:07:10.052Z,98217.63
2018-07-19T03:08:12.965Z,98222.22
2018-07-19T03:09:15.873Z,98214.77
2018-07-19T03:10:19.251Z,98214.19
2018-07-19T03:11:23.157Z,98208.81
2018-07-19T03:12:26.083Z,98215.09
2018-07-19T03:13:29.481Z,98213.98
2018-07-19T03:14:32.375Z,98212.47
2018-07-19T03:15:36.568Z,98213.95
2018-07-19T03:16:41.562Z,98215.55
2018-07-19T03:17:44.572Z,98218.08
2018-07-19T03:18:47.485Z,98220.30
2018-07-19T03:19:50.998Z,98217.55
2018-07-19T03:20:53.906Z,98222.61
2018-07-19T03:21:56.938Z,98220.88
2018-07-19T03:23:00.876Z,98218.08
2018-07-19T03:24:05.015Z,98212.20
2018-07-19T03:25:09.567Z,98214.88
2018-07-19T03:26:13.693Z,98215.49
2018-07-19T03:27:16.640Z,98218.20
2018-07-19T03:28:19.646Z,98211.12
2018-07-19T03:29:26.054Z,98218.30
2018-07-19T03:30:28.989Z,98216.52
2018-07-19T03:31:32.723Z,98214.11
2018-07-19T03:32:35.605Z,98211.69
2018-07-19T03:33:38.618Z,98214.20
2018-07-19T03:34:41.886Z,98216.45
2018-07-19T03:35:45.179Z,98218.68
2018-07-19T03:36:48.686Z,98217.09
2018-07-19T03:37:52.318Z,98222.28
2018-07-19T03:38:55.347Z,98217.48
2018-07-19T03:39:58.240Z,98213.31
2018-07-19T03:41:01.218Z,98213.92
2018-07-19T03:42:06.098Z,98214.91
2018-07-19T03:43:10.265Z,98211.09
2018-07-19T03:44:13.743Z,98211.60
2018-07-19T03:45:16.843Z,98211.11
2018-07-19T03:46:20.078Z,98203.31
2018-07-19T03:47:23.013Z,98209.55
2018-07-19T03:48:26.759Z,98207.45
2018-07-19T03:49:31.066Z,98210.30
2018-07-19T03:50:34.022Z,98209.91
2018-07-19T03:51:36.948Z,98214.55
2018-07-19T03:52:39.938Z,98214.58
2018-07-19T03:53:42.885Z,98206.67
2018-07-19T03:54:45.781Z,98205.73
2018-07-19T03:55:50.503Z,98210.69
2018-07-19T03:56:53.434Z,98213.79
2018-07-19T03:57:56.356Z,98207.56
2018-07-19T03:58:59.334Z,98210.58
2018-07-19T04:00:03.574Z,98207.39
2018-07-19T04:01:06.541Z,98206.67
2018-07-19T04:02:10.563Z,98208.05
2018-07-19T04:03:13.512Z,98208.83
2018-07-19T04:04:16.570Z,98209.61
2018-07-19T04:05:19.466Z,98213.11
2018-07-19T04:06:22.853Z,98210.11
2018-07-19T04:07:27.382Z,98202.63
2018-07-19T04:08:30.395Z,98209.34
2018-07-19T04:09:33.322Z,98210.07
2018-07-19T04:10:39.773Z,98210.98
2018-07-19T04:11:46.909Z,98212.36
2018-07-19T04:12:50.614Z,98213.73
2018-07-19T04:13:53.561Z,98210.49
2018-07-19T04:14:56.617Z,98215.16
2018-07-19T04:16:00.504Z,98221.05
2018-07-19T04:17:03.579Z,98212.63
2018-07-19T04:18:06.711Z,98212.83
2018-07-19T04:19:10.484Z,98216.59
2018-07-19T04:20:14.355Z,98218.23
2018-07-19T04:21:19.935Z,98220.77
2018-07-19T04:22:22.909Z,98220.31
2018-07-19T04:23:25.843Z,98222.67
2018-07-19T04:24:28.897Z,98222.41
2018-07-19T04:25:33.751Z,98220.66
2018-07-19T04:26:36.687Z,98220.77
2018-07-19T04:27:39.558Z,98217.30
2018-07-19T04:28:42.471Z,98222.02
2018-07-19T04:29:45.494Z,98217.17
2018-07-19T04:30:48.451Z,98220.58
2018-07-19T04:31:53.131Z,98220.56
2018-07-19T04:32:56.004Z,98216.28
2018-07-19T04:33:59.008Z,98225.48
2018-07-19T04:35:03.260Z,98224.19
2018-07-19T04:36:06.241Z,98226.14
2018-07-19T04:37:10.097Z,98221.33
2018-07-19T04:38:13.639Z,98220.83
2018-07-19T04:39:18.735Z,98225.05
2018-07-19T04:40:21.994Z,98226.52
2018-07-19T04:41:29.544Z,98224.67
2018-07-19T04:42:40.051Z,98229.77
2018-07-19T04:46:25.516Z,98218.06
2018-07-19T04:58:27.089Z,98216.60
2018-07-19T04:59:33.473Z,98218.11
2018-07-19T05:00:36.710Z,98220.65
2018-07-19T05:01:40.883Z,98219.47
2018-07-19T05:02:47.970Z,98224.63
2018-07-19T05:03:51.024Z,98222.89
2018-07-19T05:05:05.215Z,98223.84
2018-07-19T05:07:21.542Z,98224.27
2018-07-19T05:08:24.875Z,98221.44
2018-07-19T05:09:38.969Z,98223.91
2018-07-19T05:10:42.674Z,98222.93
2018-07-19T05:14:13.947Z,98213.49
2018-07-19T05:20:11.016Z,98224.43
2018-07-19T05:21:14.169Z,98224.30
2018-07-19T05:22:17.132Z,98222.73
2018-07-19T05:24:35.536Z,98227.50
2018-07-19T05:26:54.536Z,98226.14
2018-07-19T09:14:10.991Z,98202.78
2018-07-19T09:15:15.539Z,98206.95
2018-07-19T09:16:19.511Z,98201.47
2018-07-19T09:17:23.279Z,98206.89
2018-07-19T09:18:27.992Z,98199.91
2018-07-19T09:19:31.641Z,98203.57
2018-07-19T09:20:35.689Z,98204.40
2018-07-19T09:21:38.692Z,98203.47
2018-07-19T09:22:42.917Z,98211.79
2018-07-19T09:23:47.280Z,98205.80
2018-07-19T09:24:53.330Z,98206.39
2018-07-19T09:25:56.740Z,98200.66
2018-07-19T09:27:01.975Z,98195.16
2018-07-19T09:28:07.612Z,98193.92
2018-07-19T09:29:12.062Z,98189.36
2018-07-19T09:30:15.707Z,98192.18
2018-07-19T09:31:21.616Z,98188.97
2018-07-19T09:32:25.173Z,98192.89
2018-07-19T09:33:38.644Z,98190.84
2018-07-19T09:34:41.732Z,98194.84
2018-07-19T09:35:48.721Z,98193.65
2018-07-19T09:36:55.918Z,98191.32
2018-07-19T09:38:01.981Z,98189.05
2018-07-19T09:39:06.447Z,98197.53
2018-07-19T09:40:11.303Z,98190.26
2018-07-19T09:41:15.542Z,98191.28
2018-07-19T09:42:27.601Z,98185.70
2018-07-19T09:43:32.183Z,98192.30
2018-07-19T09:44:35.466Z,98190.58
2018-07-19T09:48:11.349Z,98185.50
2018-07-19T09:49:46.347Z,98183.10
2018-07-19T09:59:24.212Z,98178.19
2018-07-19T10:00:32.698Z,98184.01
2018-07-19T10:01:37.602Z,98186.55
2018-07-19T10:02:42.292Z,98185.83
2018-07-19T10:03:45.235Z,98182.03
2018-07-19T10:05:06.656Z,98183.36
2018-07-19T10:06:10.509Z,98185.02
2018-07-19T10:07:14.523Z,98187.52
2018-07-19T10:08:19.104Z,98186.02
2018-07-19T10:10:31.535Z,98185.30
2018-07-19T10:11:37.351Z,98187.33
2018-07-19T10:12:41.566Z,98188.70
2018-07-19T10:13:45.712Z,98180.86
2018-07-19T10:14:49.606Z,98181.64
2018-07-19T10:15:52.732Z,98175.20
2018-07-19T10:16:56.907Z,98178.77
2018-07-19T10:18:00.314Z,98180.30
2018-07-19T10:19:05.275Z,98180.65
2018-07-19T10:20:10.289Z,98169.13
2018-07-19T10:21:14.942Z,98168.34
2018-07-19T10:22:20.522Z,98174.25
2018-07-19T10:23:23.551Z,98167.93
2018-07-19T10:24:26.909Z,98168.17
2018-07-19T10:25:29.855Z,98167.23
2018-07-19T10:26:33.510Z,98173.83
2018-07-19T10:27:36.758Z,98163.66
2018-07-19T10:28:39.710Z,98163.48
2018-07-19T10:29:43.928Z,98163.50
2018-07-19T10:30:48.551Z,98161.72
2018-07-19T10:31:54.188Z,98156.63
2018-07-19T10:33:02.879Z,98158.94
2018-07-19T10:34:05.912Z,98159.00
2018-07-19T10:35:08.860Z,98161.81
2018-07-19T10:36:11.880Z,98168.80
2018-07-19T10:37:15.282Z,98162.22
2018-07-19T10:38:18.275Z,98162.02
2018-07-19T10:39:21.898Z,98159.55
2018-07-19T10:40:24.869Z,98155.58
2018-07-19T10:41:28.798Z,98159.83
2018-07-19T10:42:32.140Z,98162.95
2018-07-19T10:43:35.655Z,98165.92
2018-07-19T10:44:41.727Z,98159.86
2018-07-19T10:45:44.708Z,98156.87
2018-07-19T10:46:49.987Z,98154.48
2018-07-19T10:47:53.511Z,98154.66
2018-07-19T10:48:56.906Z,98157.30
2018-07-19T10:50:00.667Z,98145.28
2018-07-19T10:51:04.563Z,98145.72
2018-07-19T10:52:07.538Z,98151.18
2018-07-19T10:53:10.488Z,98150.48
2018-07-19T10:54:13.425Z,98151.78
2018-07-19T10:56:31.626Z,98141.80
2018-07-19T10:57:34.543Z,98148.16
2018-07-19T11:00:03.240Z,98148.84
2018-07-19T11:01:08.053Z,98142.20
2018-07-19T11:02:15.567Z,98142.58
2018-07-19T11:03:21.323Z,98133.28
2018-07-19T11:04:24.878Z,98109.49
2018-07-19T11:05:32.701Z,98105.25
2018-07-19T11:06:35.859Z,98143.48
2018-07-19T11:07:38.832Z,98142.97
2018-07-19T11:08:44.439Z,98136.67
2018-07-19T11:10:22.230Z,98136.34
2018-07-19T11:13:01.366Z,98134.72
2018-07-19T11:14:09.298Z,98133.72
2018-07-19T11:15:15.285Z,98126.02
2018-07-19T11:16:21.299Z,98128.71
2018-07-19T11:17:29.155Z,98129.94
2018-07-19T11:18:32.309Z,98130.09
2018-07-19T11:19:36.204Z,98138.58
2018-07-19T11:20:44.902Z,98134.64
2018-07-19T11:21:48.814Z,98135.16
2018-07-19T11:24:33.553Z,98133.00
2018-07-19T11:25:41.280Z,98129.48
2018-07-19T11:26:49.313Z,98134.13
2018-07-19T11:27:55.563Z,98133.29
2018-07-19T11:29:01.451Z,98125.11
2018-07-19T11:35:26.041Z,98120.47
2018-07-19T11:37:45.465Z,98123.62
2018-07-19T11:39:10.210Z,98127.91
2018-07-19T11:40:18.789Z,98117.28
2018-07-19T11:41:26.281Z,98116.05
2018-07-19T11:42:37.491Z,98120.52
2018-07-19T11:43:46.698Z,98120.17
2018-07-19T11:44:59.594Z,98119.66
2018-07-19T11:46:10.008Z,98117.06
2018-07-19T11:47:25.421Z,98118.02
2018-07-19T11:48:33.842Z,98123.19
2018-07-19T11:49:40.702Z,98120.78
2018-07-19T11:50:47.715Z,98123.18
2018-07-19T11:53:07.349Z,98111.69
2018-07-19T11:54:11.633Z,98117.66
2018-07-19T11:56:40.688Z,98115.21
2018-07-19T11:57:46.221Z,98108.39
2018-07-19T11:58:53.525Z,98107.81
2018-07-19T11:59:57.053Z,98108.52
2018-07-19T12:01:02.084Z,98106.64
2018-07-19T12:03:24.241Z,98102.70
2018-07-19T12:04:36.358Z,98103.97
2018-07-19T12:05:41.903Z,98093.44
2018-07-19T12:06:49.860Z,98101.55
2018-07-19T12:08:04.469Z,98095.44
2018-07-19T12:09:09.691Z,98100.79
2018-07-19T12:10:17.922Z,98091.17
2018-07-19T12:11:24.998Z,98090.61
2018-07-19T12:12:31.739Z,98094.05
2018-07-19T12:13:35.772Z,98090.92
2018-07-19T12:14:41.218Z,98088.86
2018-07-19T12:15:45.147Z,98092.52
2018-07-19T12:17:01.606Z,98087.61
2018-07-19T12:18:14.284Z,98094.05
2018-07-19T12:19:18.102Z,98088.51
2018-07-19T12:20:21.586Z,98095.08
2018-07-19T12:21:33.632Z,98086.33
2018-07-19T12:22:41.777Z,98088.97
2018-07-19T12:23:49.488Z,98085.36
2018-07-19T12:26:12.390Z,98079.97
2018-07-19T12:27:22.770Z,98075.73
2018-07-19T12:28:26.159Z,98079.40
2018-07-19T12:29:32.050Z,98075.72
2018-07-19T12:30:55.369Z,98077.81
2018-07-19T12:32:08.475Z,98077.20
2018-07-19T12:33:14.184Z,98071.47
2018-07-19T12:34:17.279Z,98077.58
2018-07-19T12:35:22.470Z,98080.89
2018-07-19T12:36:26.390Z,98074.38
2018-07-19T12:37:33.497Z,98073.31
2018-07-19T12:38:39.491Z,98066.80
2018-07-19T12:39:42.837Z,98064.98
2018-07-19T12:40:48.794Z,98068.98
2018-07-19T12:41:51.773Z,98071.09
2018-07-19T12:42:57.803Z,98064.40
2018-07-19T12:44:02.525Z,98059.72
2018-07-19T12:45:08.669Z,98066.77
2018-07-19T12:46:15.725Z,98065.77
2018-07-19T12:47:18.757Z,98071.63
2018-07-19T12:48:22.122Z,98069.42
2018-07-19T12:49:27.098Z,98064.63
2018-07-19T12:50:32.695Z,98060.55
2018-07-19T12:51:36.831Z,98053.27
2018-07-19T12:52:40.915Z,98054.47
2018-07-19T12:53:43.863Z,98057.27
2018-07-19T12:54:47.836Z,98059.65
2018-07-19T12:55:52.889Z,98061.11
2018-07-19T12:56:56.739Z,98058.67
2018-07-19T12:58:00.528Z,98058.98
2018-07-19T12:59:09.186Z,98064.78
2018-07-19T13:00:13.238Z,98061.53
2018-07-19T13:01:16.354Z,98058.92
2018-07-19T13:02:19.296Z,98062.47
2018-07-19T13:03:23.025Z,98055.83
2018-07-19T13:04:26.306Z,98061.22
2018-07-19T13:05:29.234Z,98057.69
2018-07-19T13:06:37.864Z,98057.58
2018-07-19T13:07:48.520Z,98058.55
2018-07-19T13:08:51.919Z,98063.88
2018-07-19T13:09:56.800Z,98058.89
2018-07-19T13:11:01.102Z,98063.64
2018-07-19T13:12:05.293Z,98063.88
2018-07-19T13:13:09.807Z,98064.22
2018-07-19T13:14:13.832Z,98062.09
2018-07-19T13:15:17.859Z,98052.78
2018-07-19T13:16:22.750Z,98053.59
2018-07-19T13:17:27.892Z,98056.28
2018-07-19T13:18:32.369Z,98052.34
2018-07-19T13:19:37.312Z,98046.91
2018-07-19T13:20:41.148Z,98048.75
2018-07-19T13:21:45.288Z,98051.25
2018-07-19T13:22:48.287Z,98049.48
2018-07-19T13:23:51.513Z,98049.20
2018-07-19T13:24:57.878Z,98047.44
2018-07-19T13:26:07.248Z,98051.11
2018-07-19T13:28:45.619Z,98045.88
2018-07-19T13:29:48.682Z,98049.08
2018-07-19T13:30:54.888Z,98051.19
2018-07-19T13:31:58.736Z,98048.48
2018-07-19T13:33:01.721Z,98044.76
2018-07-19T13:34:06.637Z,98047.52
2018-07-19T13:35:10.002Z,98050.17
2018-07-19T13:36:13.430Z,98048.21
2018-07-19T13:37:16.634Z,98046.45
2018-07-19T13:38:21.334Z,98048.36
2018-07-19T13:39:25.121Z,98045.73
2018-07-19T13:40:29.546Z,98045.38
2018-07-19T13:41:32.705Z,98048.72
2018-07-19T13:42:37.197Z,98046.98
2018-07-19T13:43:40.156Z,98045.31
2018-07-19T13:44:43.167Z,98039.68
2018-07-19T13:45:47.296Z,98049.16
2018-07-19T13:46:51.671Z,98048.67
2018-07-19T13:47:54.929Z,98048.75
2018-07-19T13:48:57.919Z,98039.19
2018-07-19T13:50:02.521Z,98040.70
2018-07-19T13:51:07.125Z,98043.77
2018-07-19T13:53:24.582Z,98040.08
2018-07-19T13:54:27.766Z,98041.87
2018-07-19T13:55:30.796Z,98041.59
2018-07-19T13:56:33.825Z,98036.86
2018-07-19T13:57:36.809Z,98036.58
2018-07-19T13:58:41.286Z,98039.91
2018-07-19T13:59:48.897Z,98035.27
2018-07-19T14:00:54.227Z,98036.23
2018-07-19T14:01:59.754Z,98033.52
2018-07-19T14:03:06.912Z,98035.01
2018-07-19T14:04:10.740Z,98033.28
2018-07-19T14:05:13.785Z,98038.86
2018-07-19T14:06:18.995Z,98030.10
2018-07-19T14:07:23.075Z,98033.90
2018-07-19T14:08:26.541Z,98029.96
2018-07-19T14:09:29.785Z,98026.84
2018-07-19T14:10:34.326Z,98027.70
2018-07-19T14:11:38.383Z,98029.55
2018-07-19T14:12:47.710Z,98027.53
2018-07-19T14:13:52.824Z,98024.09
2018-07-19T14:14:55.754Z,98034.24
2018-07-19T14:16:08.101Z,98026.91
2018-07-19T14:17:11.325Z,98023.75
2018-07-19T14:18:14.535Z,98021.14
2018-07-19T14:19:21.183Z,98022.95
2018-07-19T23:30:11.332Z,97957.79
2018-07-19T23:31:15.346Z,97965.24
2018-07-19T23:32:18.952Z,97963.23
2018-07-19T23:33:21.969Z,97959.72
2018-07-19T23:34:25.108Z,97964.40
2018-07-19T23:35:33.168Z,97963.83
2018-07-19T23:36:43.089Z,97961.97
2018-07-19T23:37:49.138Z,97967.55
2018-07-19T23:38:56.238Z,97963.77
2018-07-19T23:40:09.763Z,97965.00
2018-07-19T23:41:17.596Z,97962.90
2018-07-19T23:42:26.408Z,97963.81
2018-07-19T23:43:32.682Z,97962.82
2018-07-19T23:44:42.972Z,97966.65
2018-07-19T23:46:48.694Z,97963.58
2018-07-19T23:47:51.878Z,97966.45
2018-07-19T23:48:56.692Z,97958.37
2018-07-19T23:49:59.941Z,97963.98
2018-07-19T23:51:02.955Z,97958.98
2018-07-19T23:52:05.816Z,97962.44
2018-07-19T23:53:08.788Z,97954.91
2018-07-19T23:54:11.636Z,97955.09
2018-07-19T23:55:15.002Z,97957.31
2018-07-19T23:56:19.343Z,97950.01
2018-07-19T23:57:23.187Z,97958.00
2018-07-19T23:58:26.041Z,97951.18
2018-07-19T23:59:29.017Z,97947.72
